Time;durP1;ratioP1;P1;durP2;ratioP2;P2;SDS_P1;SDS_P2;PMS_P1;PMS_P2;Temp;Humidity;BMP_temperature;BMP_pressure;BME280_temperature;BME280_humidity;BME280_pressure;Samples;Min_cycle;Max_cycle;Signal;HPM_P1;HPM_P2
2021/12/09 00:00:59;;;;;;;24.65;10.40;;;;;;;;;;5144564;27;20087;-65
2021/12/09 00:03:27;;;;;;;16.10;8.82;;;;;;;;;;5162205;27;20042;-65
2021/12/09 00:05:55;;;;;;;26.88;10.93;;;;;;;;;;5144127;27;20092;-68
2021/12/09 00:08:22;;;;;;;19.98;9.75;;;;;;;;;;5161866;27;20051;-66
2021/12/09 00:10:49;;;;;;;33.60;12.15;;;;;;;;;;5127381;27;20027;-68
2021/12/09 00:13:14;;;;;;;63.30;15.55;;;;;;;;;;5161778;27;20047;-66
2021/12/09 00:15:40;;;;;;;85.90;19.88;;;;;;;;;;5126889;27;20057;-67
2021/12/09 00:18:09;;;;;;;;;;;;;;;;;;5162101;27;20042;-65
2021/12/09 00:20:38;;;;;;;32.50;11.75;;;;;;;;;;5144550;27;19908;-66
2021/12/09 00:23:05;;;;;;;39.45;12.73;;;;;;;;;;5162062;27;20039;-67
2021/12/09 00:25:31;;;;;;;26.30;12.65;;;;;;;;;;5144383;27;20108;-66
2021/12/09 00:27:57;;;;;;;21.23;10.70;;;;;;;;;;5162094;27;20027;-65
2021/12/09 00:30:23;;;;;;;24.63;11.90;;;;;;;;;;5161777;27;20039;-66
2021/12/09 00:32:49;;;;;;;23.02;11.00;;;;;;;;;;5161900;27;20051;-66
2021/12/09 00:35:17;;;;;;;22.88;11.43;;;;;;;;;;5143954;27;20106;-67
2021/12/09 00:38:00;;;;;;;17.60;11.27;;;;;;;;;;5144192;27;20050;-67
2021/12/09 00:40:26;;;;;;;21.65;11.30;;;;;;;;;;5144185;27;20038;-67
2021/12/09 00:42:52;;;;;;;24.23;12.50;;;;;;;;;;5161533;27;20046;-66
2021/12/09 00:45:19;;;;;;;20.77;11.00;;;;;;;;;;5161649;27;20049;-66
2021/12/09 00:47:45;;;;;;;25.77;11.27;;;;;;;;;;5126611;27;20051;-65
2021/12/09 00:50:11;;;;;;;22.02;12.27;;;;;;;;;;5143896;27;20101;-67
2021/12/09 00:52:37;;;;;;;20.90;11.18;;;;;;;;;;5161630;27;20079;-68
2021/12/09 00:55:05;;;;;;;23.77;11.50;;;;;;;;;;5161121;27;20061;-66
2021/12/09 00:57:31;;;;;;;23.52;11.52;;;;;;;;;;5160884;27;20030;-68
2021/12/09 00:59:58;;;;;;;26.10;11.85;;;;;;;;;;5161422;27;20043;-67
2021/12/09 01:02:25;;;;;;;24.80;12.27;;;;;;;;;;5161216;27;20039;-65
2021/12/09 01:04:51;;;;;;;22.05;11.73;;;;;;;;;;5143397;27;20020;-66
2021/12/09 01:07:20;;;;;;;22.38;11.80;;;;;;;;;;5161188;27;20026;-66
2021/12/09 01:09:46;;;;;;;21.08;11.57;;;;;;;;;;5126078;27;20035;-65
2021/12/09 01:12:12;;;;;;;24.33;12.13;;;;;;;;;;5161161;27;20084;-67
2021/12/09 01:14:38;;;;;;;22.52;11.82;;;;;;;;;;5160606;27;20080;-68
2021/12/09 01:17:09;;;;;;;63.10;17.08;;;;;;;;;;5142686;27;20102;-66
2021/12/09 01:19:35;;;;;;;29.67;12.35;;;;;;;;;;5126240;27;20019;-67
2021/12/09 01:22:01;;;;;;;24.60;12.65;;;;;;;;;;5160816;27;20030;-68
2021/12/09 01:24:29;;;;;;;19.33;11.45;;;;;;;;;;5142713;27;20047;-65
2021/12/09 01:26:57;;;;;;;21.73;11.70;;;;;;;;;;5160803;27;20047;-65
2021/12/09 01:29:33;;;;;;;23.92;13.18;;;;;;;;;;5143122;27;20043;-66
2021/12/09 01:32:02;;;;;;;26.30;12.70;;;;;;;;;;5125675;27;20051;-67
2021/12/09 01:34:47;;;;;;;25.63;12.27;;;;;;;;;;5160164;27;20029;-65
2021/12/09 01:37:13;;;;;;;25.75;13.63;;;;;;;;;;5160474;27;20039;-66
2021/12/09 01:39:39;;;;;;;23.85;12.43;;;;;;;;;;5141849;27;20102;-66
2021/12/09 01:42:05;;;;;;;30.17;13.65;;;;;;;;;;5160200;27;20182;-67
2021/12/09 01:44:31;;;;;;;22.15;12.23;;;;;;;;;;5142355;27;20089;-66
2021/12/09 01:46:57;;;;;;;23.27;12.30;;;;;;;;;;5159984;27;20023;-66
2021/12/09 01:49:23;;;;;;;24.90;12.25;;;;;;;;;;5125442;27;20031;-66
2021/12/09 01:51:49;;;;;;;21.40;12.02;;;;;;;;;;5142528;27;20033;-66
2021/12/09 01:54:15;;;;;;;26.27;11.90;;;;;;;;;;5142309;27;20075;-66
2021/12/09 01:56:42;;;;;;;28.85;12.48;;;;;;;;;;5161069;27;20082;-67
2021/12/09 01:59:08;;;;;;;30.38;12.30;;;;;;;;;;5165819;27;20022;-66
2021/12/09 02:01:34;;;;;;;24.08;12.00;;;;;;;;;;5125493;27;20034;-67
2021/12/09 02:04:01;;;;;;;25.25;12.05;;;;;;;;;;5160356;27;20023;-66
2021/12/09 02:06:28;;;;;;;24.05;11.38;;;;;;;;;;5159793;27;20030;-66
2021/12/09 02:08:54;;;;;;;21.15;11.70;;;;;;;;;;5141420;27;20035;-67
2021/12/09 02:11:20;;;;;;;23.80;12.63;;;;;;;;;;5143264;27;20030;-67
2021/12/09 02:13:50;;;;;;;27.83;12.40;;;;;;;;;;5162613;27;20034;-64
2021/12/09 02:16:16;;;;;;;26.20;12.85;;;;;;;;;;5145674;27;20043;-66
2021/12/09 02:18:42;;;;;;;24.42;13.27;;;;;;;;;;5162648;27;20037;-65
2021/12/09 02:21:08;;;;;;;27.95;13.75;;;;;;;;;;5180482;27;20082;-66
2021/12/09 02:23:36;;;;;;;26.17;13.27;;;;;;;;;;5180143;27;20052;-66
2021/12/09 02:26:02;;;;;;;29.10;13.85;;;;;;;;;;5180390;27;20043;-67
2021/12/09 02:28:28;;;;;;;32.50;13.45;;;;;;;;;;5162625;27;20019;-67
2021/12/09 02:30:54;;;;;;;78.53;20.83;;;;;;;;;;5180711;27;20047;-66
2021/12/09 02:33:20;;;;;;;33.15;14.18;;;;;;;;;;5180437;27;20027;-67
2021/12/09 02:35:46;;;;;;;46.03;16.05;;;;;;;;;;5162967;27;20031;-66
2021/12/09 02:38:12;;;;;;;30.95;13.68;;;;;;;;;;5180643;27;20019;-67
2021/12/09 02:40:38;;;;;;;25.60;13.15;;;;;;;;;;5180339;27;20076;-68
2021/12/09 02:43:08;;;;;;;36.95;13.52;;;;;;;;;;5180637;27;20039;-67
2021/12/09 02:45:34;;;;;;;25.27;13.30;;;;;;;;;;5146166;27;20068;-68
2021/12/09 02:48:00;;;;;;;26.15;12.77;;;;;;;;;;5180272;27;20027;-65
2021/12/09 02:50:26;;;;;;;28.30;13.13;;;;;;;;;;5162298;27;20041;-67
2021/12/09 02:52:52;;;;;;;26.58;13.20;;;;;;;;;;5180409;27;20049;-66
2021/12/09 02:55:18;;;;;;;28.27;14.77;;;;;;;;;;5180170;27;20046;-72
2021/12/09 02:57:44;;;;;;;25.65;14.00;;;;;;;;;;5180467;27;20035;-66
2021/12/09 03:00:11;;;;;;;28.50;14.27;;;;;;;;;;5180533;27;20318;-66
2021/12/09 03:02:37;;;;;;;26.83;14.27;;;;;;;;;;5162510;27;20130;-67
2021/12/09 03:05:04;;;;;;;34.38;14.75;;;;;;;;;;5162244;27;20030;-68
2021/12/09 03:07:33;;;;;;;28.02;14.80;;;;;;;;;;5145252;27;20035;-66
2021/12/09 03:10:09;;;;;;;33.33;15.05;;;;;;;;;;5162414;27;20045;-67
2021/12/09 03:12:40;;;;;;;27.73;15.15;;;;;;;;;;5162407;27;20074;-68
2021/12/09 03:15:07;;;;;;;27.92;14.30;;;;;;;;;;5162558;27;20042;-66
2021/12/09 03:17:35;;;;;;;27.42;14.57;;;;;;;;;;5161999;27;20043;-68
2021/12/09 03:20:01;;;;;;;32.47;15.53;;;;;;;;;;5162890;27;20054;-65
2021/12/09 03:22:27;;;;;;;31.08;15.32;;;;;;;;;;5148565;27;20320;-66
2021/12/09 03:24:53;;;;;;;31.25;16.23;;;;;;;;;;5148587;27;20076;-65
2021/12/09 03:27:19;;;;;;;29.88;15.38;;;;;;;;;;5183459;27;20035;-64
2021/12/09 03:29:45;;;;;;;34.15;15.43;;;;;;;;;;5147641;27;20186;-64
2021/12/09 03:32:13;;;;;;;33.28;16.23;;;;;;;;;;5183057;27;20027;-66
2021/12/09 03:34:40;;;;;;;35.47;16.17;;;;;;;;;;5165511;27;20047;-65
2021/12/09 03:37:08;;;;;;;29.70;16.52;;;;;;;;;;5148845;27;20041;-66
2021/12/09 03:39:37;;;;;;;31.30;16.27;;;;;;;;;;5182714;27;20122;-66
2021/12/09 03:42:03;;;;;;;32.38;15.73;;;;;;;;;;5165782;27;20031;-66
2021/12/09 03:44:30;;;;;;;33.85;15.27;;;;;;;;;;5165748;27;20035;-64
2021/12/09 03:46:57;;;;;;;30.52;15.65;;;;;;;;;;5165302;27;20030;-66
2021/12/09 03:49:25;;;;;;;39.20;15.70;;;;;;;;;;5147456;27;20034;-65
2021/12/09 03:52:10;;;;;;;31.25;14.85;;;;;;;;;;5164404;27;20038;-66
2021/12/09 03:54:36;;;;;;;29.83;14.95;;;;;;;;;;5164624;27;20114;-65
2021/12/09 03:57:05;;;;;;;28.52;14.63;;;;;;;;;;5164819;27;20050;-67
2021/12/09 03:59:32;;;;;;;30.75;14.68;;;;;;;;;;5164271;27;20050;-65
2021/12/09 04:01:58;;;;;;;35.90;15.30;;;;;;;;;;5165150;27;20045;-65
2021/12/09 04:04:27;;;;;;;;;;;;;;;;;;5165238;27;20076;-64
2021/12/09 04:06:53;;;;;;;31.58;13.88;;;;;;;;;;5163986;27;19923;-65
2021/12/09 04:09:22;;;;;;;26.48;13.88;;;;;;;;;;5163736;27;20046;-66
2021/12/09 04:11:48;;;;;;;31.35;14.80;;;;;;;;;;5181975;27;20019;-66
2021/12/09 04:14:14;;;;;;;36.60;16.05;;;;;;;;;;5163757;27;20027;-65
2021/12/09 04:16:40;;;;;;;31.92;15.95;;;;;;;;;;5163883;27;20120;-66
2021/12/09 04:19:07;;;;;;;31.88;15.20;;;;;;;;;;5163364;27;20046;-66
2021/12/09 04:21:33;;;;;;;40.28;16.17;;;;;;;;;;5163820;27;20464;-65
2021/12/09 04:24:06;;;;;;;36.92;15.02;;;;;;;;;;5163313;27;20049;-65
2021/12/09 04:26:32;;;;;;;31.02;15.00;;;;;;;;;;5147442;27;20725;-66
2021/12/09 04:28:58;;;;;;;35.28;15.55;;;;;;;;;;5163707;27;20041;-64
2021/12/09 04:31:25;;;;;;;30.30;14.70;;;;;;;;;;5163392;27;20047;-65
2021/12/09 04:33:51;;;;;;;31.13;15.52;;;;;;;;;;5164168;27;20062;-65
2021/12/09 04:36:19;;;;;;;39.67;17.15;;;;;;;;;;5164280;27;20039;-67
2021/12/09 04:38:47;;;;;;;32.70;16.20;;;;;;;;;;5182106;27;20063;-66
2021/12/09 04:41:14;;;;;;;30.98;16.05;;;;;;;;;;5164590;27;20048;-66
2021/12/09 04:43:41;;;;;;;43.45;17.45;;;;;;;;;;5182229;27;20034;-65
2021/12/09 04:46:07;;;;;;;36.60;16.00;;;;;;;;;;5164512;27;20042;-66
2021/12/09 04:48:33;;;;;;;37.90;17.70;;;;;;;;;;5181889;27;20042;-64
2021/12/09 04:50:59;;;;;;;44.42;19.15;;;;;;;;;;5164059;27;20023;-67
2021/12/09 04:53:26;;;;;;;41.30;19.00;;;;;;;;;;5163670;27;20058;-67
2021/12/09 04:55:53;;;;;;;52.50;17.88;;;;;;;;;;5163683;27;20042;-66
2021/12/09 04:58:19;;;;;;;43.22;19.30;;;;;;;;;;5181847;27;20035;-66
2021/12/09 05:00:47;;;;;;;42.47;17.98;;;;;;;;;;5163975;27;20038;-68
2021/12/09 05:03:15;;;;;;;46.70;19.08;;;;;;;;;;5164388;27;20092;-66
2021/12/09 05:05:43;;;;;;;44.80;18.67;;;;;;;;;;5163022;27;20058;-67
2021/12/09 05:08:12;;;;;;;41.08;20.23;;;;;;;;;;5146677;27;20019;-66
2021/12/09 05:10:53;;;;;;;44.20;19.85;;;;;;;;;;5163637;27;20062;-65
2021/12/09 05:13:38;;;;;;;41.03;19.98;;;;;;;;;;5181532;27;20026;-65
2021/12/09 05:16:06;;;;;;;50.05;20.80;;;;;;;;;;5181281;27;20052;-68
2021/12/09 05:18:33;;;;;;;50.50;21.63;;;;;;;;;;5163182;27;20047;-65
2021/12/09 05:21:00;;;;;;;43.25;19.38;;;;;;;;;;5163179;27;20047;-65
2021/12/09 05:23:26;;;;;;;41.88;19.02;;;;;;;;;;5145894;27;20047;-65
2021/12/09 05:25:52;;;;;;;42.28;19.42;;;;;;;;;;5145793;27;20035;-65
2021/12/09 05:28:19;;;;;;;51.55;21.17;;;;;;;;;;5163111;27;20046;-65
2021/12/09 05:33:33;;;;;;;45.13;19.77;;;;;;;;;;5163379;27;20026;-66
2021/12/09 05:35:59;;;;;;;48.15;21.73;;;;;;;;;;5180944;27;20279;-65
2021/12/09 05:38:27;;;;;;;44.80;21.95;;;;;;;;;;5180747;27;20042;-65
2021/12/09 05:40:56;;;;;;;48.35;22.15;;;;;;;;;;5161965;27;20038;-66
2021/12/09 05:43:22;;;;;;;46.28;22.15;;;;;;;;;;5144927;27;20099;-67
2021/12/09 05:45:49;;;;;;;48.42;23.02;;;;;;;;;;5161879;27;20090;-64
2021/12/09 05:48:15;;;;;;;42.17;21.52;;;;;;;;;;5161591;27;20056;-65
2021/12/09 05:50:41;;;;;;;44.13;22.00;;;;;;;;;;5143140;27;20055;-65
2021/12/09 05:53:07;;;;;;;46.30;23.08;;;;;;;;;;5161747;27;20054;-65
2021/12/09 05:55:34;;;;;;;50.28;23.38;;;;;;;;;;5177424;27;20053;-65
2021/12/09 05:58:00;;;;;;;44.83;21.75;;;;;;;;;;5143160;27;20070;-64
2021/12/09 06:00:26;;;;;;;49.30;24.25;;;;;;;;;;5178263;27;20026;-65
2021/12/09 06:02:52;;;;;;;50.13;24.33;;;;;;;;;;5178105;27;20026;-65
2021/12/09 06:05:19;;;;;;;44.80;21.90;;;;;;;;;;5160822;27;20037;-64
2021/12/09 06:07:45;;;;;;;48.40;22.85;;;;;;;;;;5161086;27;20050;-65
2021/12/09 06:10:11;;;;;;;47.95;22.92;;;;;;;;;;5161346;27;20023;-65
2021/12/09 06:12:38;;;;;;;50.47;23.05;;;;;;;;;;5159997;27;20039;-63
2021/12/09 06:15:05;;;;;;;52.40;22.73;;;;;;;;;;5177911;27;20075;-65
2021/12/09 06:17:30;;;;;;;50.90;23.83;;;;;;;;;;5143807;27;20058;-65
2021/12/09 06:19:57;;;;;;;47.47;23.60;;;;;;;;;;5177727;27;20019;-65
2021/12/09 06:22:23;;;;;;;50.80;22.30;;;;;;;;;;5142317;27;20103;-65
2021/12/09 06:24:48;;;;;;;44.53;21.48;;;;;;;;;;5176641;27;20049;-64
2021/12/09 06:27:14;;;;;;;52.95;23.42;;;;;;;;;;5160537;27;20062;-67
2021/12/09 06:29:41;;;;;;;48.70;22.92;;;;;;;;;;5159717;27;20046;-64
2021/12/09 06:32:07;;;;;;;53.38;24.08;;;;;;;;;;5159760;27;20030;-64
2021/12/09 06:34:34;;;;;;;54.17;22.95;;;;;;;;;;5179558;27;20076;-65
2021/12/09 06:37:00;;;;;;;53.35;23.17;;;;;;;;;;5161145;27;20067;-65
2021/12/09 06:39:26;;;;;;;55.28;24.30;;;;;;;;;;5179549;27;20043;-65
2021/12/09 06:41:52;;;;;;;62.00;25.42;;;;;;;;;;5160552;27;20043;-67
2021/12/09 06:44:18;;;;;;;54.42;23.88;;;;;;;;;;5179176;27;20080;-64
2021/12/09 06:46:47;;;;;;;;;;;;;;;;;;5179446;27;20049;-64
2021/12/09 06:49:13;;;;;;;47.63;21.48;;;;;;;;;;5175985;27;19923;-64
2021/12/09 06:51:39;;;;;;;51.75;23.63;;;;;;;;;;5176555;27;20404;-64
2021/12/09 06:54:05;;;;;;;57.63;23.23;;;;;;;;;;5157108;27;20074;-64
2021/12/09 06:56:32;;;;;;;57.25;24.92;;;;;;;;;;5177765;27;20050;-64
2021/12/09 06:58:59;;;;;;;78.13;27.25;;;;;;;;;;5162282;27;20083;-65
2021/12/09 07:01:25;;;;;;;91.70;27.20;;;;;;;;;;5182001;27;20038;-65
2021/12/09 07:03:51;;;;;;;59.13;23.27;;;;;;;;;;5180318;27;20053;-66
2021/12/09 07:06:18;;;;;;;82.93;26.80;;;;;;;;;;5180997;27;20043;-65
2021/12/09 07:08:46;;;;;;;77.82;26.60;;;;;;;;;;5163292;27;20048;-68
2021/12/09 07:11:16;;;;;;;64.82;25.65;;;;;;;;;;5181255;27;20061;-64
2021/12/09 07:13:43;;;;;;;70.97;25.38;;;;;;;;;;5182044;27;20049;-64
2021/12/09 07:16:09;;;;;;;95.93;27.90;;;;;;;;;;5179887;27;20038;-64
2021/12/09 07:18:36;;;;;;;55.08;24.35;;;;;;;;;;5162188;27;20043;-64
2021/12/09 07:21:02;;;;;;;84.05;29.98;;;;;;;;;;5179216;27;20081;-64
2021/12/09 07:23:28;;;;;;;72.78;28.70;;;;;;;;;;5157959;27;20057;-63
2021/12/09 07:25:55;;;;;;;93.45;29.40;;;;;;;;;;5179131;27;20038;-64
2021/12/09 07:28:21;;;;;;;75.45;27.27;;;;;;;;;;5161787;27;20034;-64
2021/12/09 07:30:47;;;;;;;102.25;30.80;;;;;;;;;;5181455;27;20029;-64
2021/12/09 07:33:12;;;;;;;90.25;30.25;;;;;;;;;;5145098;27;20027;-64
2021/12/09 07:35:40;;;;;;;79.47;29.35;;;;;;;;;;5180365;27;20046;-64
2021/12/09 07:38:06;;;;;;;117.60;31.50;;;;;;;;;;5161839;27;20054;-64
2021/12/09 07:40:32;;;;;;;107.28;29.92;;;;;;;;;;5161745;27;20038;-64
2021/12/09 07:42:59;;;;;;;69.82;24.40;;;;;;;;;;5180584;27;20121;-64
2021/12/09 07:45:25;;;;;;;65.25;22.58;;;;;;;;;;5135171;27;20039;-63
2021/12/09 07:47:51;;;;;;;53.17;22.40;;;;;;;;;;5170850;27;20072;-65
2021/12/09 07:50:18;;;;;;;63.83;26.10;;;;;;;;;;5155068;27;20039;-64
2021/12/09 07:52:48;;;;;;;64.95;25.88;;;;;;;;;;5180343;27;20045;-65
2021/12/09 07:55:15;;;;;;;104.78;30.23;;;;;;;;;;5179769;27;20051;-65
2021/12/09 07:57:41;;;;;;;69.78;25.60;;;;;;;;;;5159833;27;20389;-64
2021/12/09 08:00:12;;;;;;;57.42;22.50;;;;;;;;;;5177330;27;20064;-65
2021/12/09 08:02:39;;;;;;;55.38;21.30;;;;;;;;;;5178635;27;20054;-65
2021/12/09 08:05:05;;;;;;;60.03;21.92;;;;;;;;;;5178278;27;20095;-65
2021/12/09 08:07:31;;;;;;;83.57;23.77;;;;;;;;;;5177617;27;20077;-65
2021/12/09 08:09:57;;;;;;;85.13;26.48;;;;;;;;;;5179567;27;20054;-66
2021/12/09 08:12:23;;;;;;;66.88;23.48;;;;;;;;;;5161173;27;20114;-65
2021/12/09 08:14:49;;;;;;;73.13;22.20;;;;;;;;;;5181227;27;20038;-64
2021/12/09 08:20:05;;;;;;;55.50;25.00;;;;;;;;;;5181160;27;20071;-65
2021/12/09 08:22:31;;;;;;;60.85;24.55;;;;;;;;;;5180317;27;20153;-64
2021/12/09 08:24:58;;;;;;;96.82;28.83;;;;;;;;;;5180373;27;20047;-65
2021/12/09 08:27:24;;;;;;;47.60;20.77;;;;;;;;;;5164092;27;20023;-65
2021/12/09 08:29:51;;;;;;;53.90;21.58;;;;;;;;;;5181935;27;20039;-65
2021/12/09 08:32:17;;;;;;;51.95;20.73;;;;;;;;;;5181049;27;20045;-66
2021/12/09 08:34:43;;;;;;;66.45;21.55;;;;;;;;;;5162394;27;20065;-65
2021/12/09 08:37:09;;;;;;;44.75;18.98;;;;;;;;;;5181671;27;20086;-65
2021/12/09 08:39:35;;;;;;;108.22;27.30;;;;;;;;;;5147034;27;20047;-65
2021/12/09 08:42:01;;;;;;;81.07;25.08;;;;;;;;;;5182275;27;20026;-65
2021/12/09 08:44:27;;;;;;;63.28;21.33;;;;;;;;;;5146308;27;20042;-65
2021/12/09 08:46:53;;;;;;;44.05;18.42;;;;;;;;;;5180532;27;20038;-65
2021/12/09 08:49:19;;;;;;;53.45;19.52;;;;;;;;;;5160874;27;20042;-65
2021/12/09 08:51:46;;;;;;;51.80;19.45;;;;;;;;;;5160928;27;20044;-65
2021/12/09 08:54:13;;;;;;;43.17;17.48;;;;;;;;;;5156924;27;20051;-64
2021/12/09 08:56:39;;;;;;;110.40;29.05;;;;;;;;;;5142968;27;20058;-64
2021/12/09 08:59:06;;;;;;;182.38;39.45;;;;;;;;;;5161957;27;20050;-65
2021/12/09 09:01:33;;;;;;;59.28;20.73;;;;;;;;;;5179863;27;20035;-64
2021/12/09 09:03:59;;;;;;;48.65;18.17;;;;;;;;;;5178016;27;20054;-65
2021/12/09 09:06:25;;;;;;;57.83;19.45;;;;;;;;;;5155739;27;20489;-65
2021/12/09 09:08:57;;;;;;;73.05;21.77;;;;;;;;;;5172381;27;20047;-66
2021/12/09 09:11:23;;;;;;;55.53;20.00;;;;;;;;;;5171688;27;20408;-66
2021/12/09 09:13:49;;;;;;;42.65;16.98;;;;;;;;;;5158468;27;20384;-66
2021/12/09 09:16:15;;;;;;;43.78;17.17;;;;;;;;;;5157576;27;20098;-64
2021/12/09 09:18:41;;;;;;;82.53;22.15;;;;;;;;;;5175737;27;20039;-65
2021/12/09 09:21:07;;;;;;;38.08;15.60;;;;;;;;;;5176107;27;20043;-64
2021/12/09 09:23:34;;;;;;;25.25;14.77;;;;;;;;;;5176776;27;20042;-65
2021/12/09 09:26:00;;;;;;;27.70;13.48;;;;;;;;;;5141705;27;20046;-64
2021/12/09 09:28:26;;;;;;;25.10;13.57;;;;;;;;;;5174770;27;20060;-65
2021/12/09 09:30:53;;;;;;;30.85;14.07;;;;;;;;;;5175670;27;20050;-66
2021/12/09 09:33:20;;;;;;;28.23;13.48;;;;;;;;;;5172875;27;20046;-65
2021/12/09 09:35:46;;;;;;;40.05;15.30;;;;;;;;;;5155534;27;20077;-65
2021/12/09 09:38:12;;;;;;;34.30;14.07;;;;;;;;;;5153647;27;20042;-65
2021/12/09 09:40:50;;;;;;;28.92;13.23;;;;;;;;;;5172718;27;20042;-64
2021/12/09 09:43:42;;;;;;;37.22;14.35;;;;;;;;;;5174037;27;20540;-64
2021/12/09 09:46:10;;;;;;;33.53;12.20;;;;;;;;;;5157851;27;20022;-65
2021/12/09 09:48:36;;;;;;;52.13;15.88;;;;;;;;;;5174072;27;20039;-65
2021/12/09 09:51:04;;;;;;;29.65;12.02;;;;;;;;;;5154905;27;20173;-65
2021/12/09 09:53:30;;;;;;;35.28;13.48;;;;;;;;;;5157685;27;20039;-65
2021/12/09 09:55:56;;;;;;;28.17;12.10;;;;;;;;;;5157371;27;20069;-65
2021/12/09 09:58:25;;;;;;;24.75;11.35;;;;;;;;;;5159824;27;20130;-65
2021/12/09 10:00:51;;;;;;;35.00;12.95;;;;;;;;;;5177575;27;20049;-65
2021/12/09 10:03:17;;;;;;;30.15;11.45;;;;;;;;;;5157037;27;20046;-65
2021/12/09 10:05:50;;;;;;;25.23;10.90;;;;;;;;;;5139125;27;20106;-65
2021/12/09 10:08:18;;;;;;;20.17;10.25;;;;;;;;;;5158567;27;20043;-65
2021/12/09 10:10:46;;;;;;;22.25;9.90;;;;;;;;;;5159959;27;20053;-64
2021/12/09 10:13:13;;;;;;;18.58;9.20;;;;;;;;;;5177075;27;20408;-66
2021/12/09 10:15:48;;;;;;;18.25;9.00;;;;;;;;;;5158412;27;20027;-65
2021/12/09 10:18:15;;;;;;;20.65;8.25;;;;;;;;;;5161333;27;20023;-65
2021/12/09 10:20:49;;;;;;;41.47;11.40;;;;;;;;;;5177219;27;20074;-66
2021/12/09 10:23:26;;;;;;;25.48;9.80;;;;;;;;;;5176164;27;20043;-65
2021/12/09 10:26:11;;;;;;;36.10;11.50;;;;;;;;;;5177225;27;20043;-65
2021/12/09 10:28:40;;;;;;;17.52;7.90;;;;;;;;;;5176021;27;20038;-66
2021/12/09 10:31:11;;;;;;;16.35;7.22;;;;;;;;;;5176692;27;20114;-65
2021/12/09 10:34:01;;;;;;;77.05;15.88;;;;;;;;;;5156604;27;20400;-66
2021/12/09 10:36:46;;;;;;;18.40;6.78;;;;;;;;;;5160400;27;20066;-66
2021/12/09 10:39:24;;;;;;;57.40;14.13;;;;;;;;;;5144103;27;20091;-67
2021/12/09 10:41:50;;;;;;;23.55;7.95;;;;;;;;;;5161762;27;20369;-66
2021/12/09 10:44:29;;;;;;;30.30;9.68;;;;;;;;;;5161680;27;20050;-66
2021/12/09 10:47:05;;;;;;;27.75;8.57;;;;;;;;;;5178802;27;20043;-66
2021/12/09 10:49:39;;;;;;;38.15;10.60;;;;;;;;;;5143554;27;20043;-66
2021/12/09 10:52:21;;;;;;;293.55;55.72;;;;;;;;;;5178384;27;20038;-65
2021/12/09 10:54:47;;;;;;;78.43;18.65;;;;;;;;;;5140910;27;20135;-65
2021/12/09 10:57:27;;;;;;;58.72;15.38;;;;;;;;;;5141638;27;20106;-64
2021/12/09 10:59:53;;;;;;;27.25;8.60;;;;;;;;;;5151271;27;20054;-64
2021/12/09 11:02:19;;;;;;;50.58;12.30;;;;;;;;;;5159108;27;20039;-66
2021/12/09 11:05:01;;;;;;;26.58;10.00;;;;;;;;;;5160462;27;20043;-66
2021/12/09 11:07:31;;;;;;;20.55;8.27;;;;;;;;;;5178527;27;20066;-65
2021/12/09 11:10:15;;;;;;;20.98;8.23;;;;;;;;;;5160943;27;20054;-67
2021/12/09 11:12:48;;;;;;;37.95;12.50;;;;;;;;;;5160794;27;20062;-65
2021/12/09 11:15:16;;;;;;;32.30;10.80;;;;;;;;;;5178969;27;20094;-66
2021/12/09 11:17:45;;;;;;;19.35;8.35;;;;;;;;;;5179124;27;20058;-65
2021/12/09 11:20:11;;;;;;;27.50;10.05;;;;;;;;;;5178697;27;20064;-65
2021/12/09 11:22:38;;;;;;;33.85;11.23;;;;;;;;;;5173270;27;20372;-65
2021/12/09 11:25:07;;;;;;;70.38;17.08;;;;;;;;;;5178984;27;20039;-68
2021/12/09 11:27:34;;;;;;;53.60;13.85;;;;;;;;;;5143295;27;20049;-64
2021/12/09 11:30:10;;;;;;;33.50;10.98;;;;;;;;;;5168681;27;20130;-64
2021/12/09 11:32:44;;;;;;;24.20;10.00;;;;;;;;;;5170633;27;20050;-64
2021/12/09 11:35:19;;;;;;;35.50;11.70;;;;;;;;;;5167404;27;20050;-64
2021/12/09 11:37:52;;;;;;;18.13;8.52;;;;;;;;;;5152542;27;20408;-64
2021/12/09 11:40:28;;;;;;;33.05;11.18;;;;;;;;;;5170595;27;20047;-64
2021/12/09 11:42:58;;;;;;;32.95;11.70;;;;;;;;;;5175720;27;20049;-64
2021/12/09 11:45:30;;;;;;;94.03;22.67;;;;;;;;;;5156514;27;20053;-64
2021/12/09 11:47:56;;;;;;;105.60;26.48;;;;;;;;;;5157139;27;20043;-65
2021/12/09 11:50:27;;;;;;;51.60;12.88;;;;;;;;;;5153374;27;20209;-64
2021/12/09 11:52:53;;;;;;;19.38;10.20;;;;;;;;;;5173521;27;20091;-64
2021/12/09 11:55:23;;;;;;;19.73;9.98;;;;;;;;;;5173139;27;20106;-64
2021/12/09 11:57:57;;;;;;;21.98;10.10;;;;;;;;;;5172639;27;20053;-65
2021/12/09 12:11:57;;;;;;;24.27;10.68;;;;;;;;;;5073675;28;20112;-64
2021/12/09 12:14:32;;;;;;;45.90;13.63;;;;;;;;;;5056334;28;20097;-65
2021/12/09 12:19:46;;;;;;;19.83;10.55;;;;;;;;;;5073978;28;20056;-63
2021/12/09 12:25:42;;;;;;;29.77;12.20;;;;;;;;;;5073036;28;20053;-63
2021/12/09 12:28:23;;;;;;;29.40;12.15;;;;;;;;;;5056511;28;20060;-64
2021/12/09 12:33:28;;;;;;;41.20;12.73;;;;;;;;;;5071632;28;20041;-66
2021/12/09 12:40:59;;;;;;;54.72;16.92;;;;;;;;;;5093980;28;20495;-63
2021/12/09 12:43:33;;;;;;;21.90;10.13;;;;;;;;;;5077220;28;20056;-64
2021/12/09 12:46:30;;;;;;;47.80;13.88;;;;;;;;;;5105870;27;20077;-64
2021/12/09 12:49:17;;;;;;;35.30;13.18;;;;;;;;;;5121625;27;20047;-63
2021/12/09 12:51:52;;;;;;;21.00;10.27;;;;;;;;;;5139151;27;20127;-64
2021/12/09 12:54:34;;;;;;;28.58;11.93;;;;;;;;;;5154806;27;20047;-63
2021/12/09 12:57:03;;;;;;;44.60;15.15;;;;;;;;;;5135583;27;20405;-63
2021/12/09 12:59:34;;;;;;;18.52;10.85;;;;;;;;;;5153233;27;20076;-64
2021/12/09 13:02:07;;;;;;;20.60;10.40;;;;;;;;;;5131838;27;20043;-64
2021/12/09 13:10:23;;;;;;;44.90;14.70;;;;;;;;;;5141053;27;20034;-64
2021/12/09 13:13:01;;;;;;;24.63;11.23;;;;;;;;;;5136554;27;20074;-64
2021/12/09 13:15:33;;;;;;;40.53;14.27;;;;;;;;;;5118930;27;20088;-64
2021/12/09 13:18:05;;;;;;;31.10;12.77;;;;;;;;;;5136882;27;20047;-64
2021/12/09 13:20:33;;;;;;;32.58;13.15;;;;;;;;;;5154916;27;20047;-64
2021/12/09 13:23:19;;;;;;;30.00;11.90;;;;;;;;;;5155821;27;20388;-63
2021/12/09 13:26:04;;;;;;;23.40;10.98;;;;;;;;;;5154604;27;20073;-64
2021/12/09 13:28:39;;;;;;;23.50;11.50;;;;;;;;;;5153376;27;20046;-64
2021/12/09 13:31:21;;;;;;;24.73;12.50;;;;;;;;;;5154139;27;20047;-64
2021/12/09 13:33:57;;;;;;;24.45;11.57;;;;;;;;;;5150590;27;20080;-63
2021/12/09 13:50:02;;;;;;;21.13;11.20;;;;;;;;;;5153944;27;20057;-64
2021/12/09 13:55:08;;;;;;;28.25;12.38;;;;;;;;;;5131640;27;20051;-64
2021/12/09 13:57:39;;;;;;;37.17;13.30;;;;;;;;;;5149672;27;20042;-64
2021/12/09 14:00:10;;;;;;;24.83;11.60;;;;;;;;;;5134111;27;20046;-64
2021/12/09 14:02:36;;;;;;;20.10;11.43;;;;;;;;;;5134211;27;20111;-64
2021/12/09 14:05:03;;;;;;;24.70;11.70;;;;;;;;;;5133982;27;20051;-64
2021/12/09 14:07:33;;;;;;;23.00;12.32;;;;;;;;;;5134749;27;20094;-66
2021/12/09 14:10:08;;;;;;;32.55;13.68;;;;;;;;;;5150952;27;20043;-64
2021/12/09 14:12:44;;;;;;;41.65;14.63;;;;;;;;;;5115397;27;20050;-65
2021/12/09 14:15:16;;;;;;;28.65;13.07;;;;;;;;;;5133092;27;20051;-65
2021/12/09 14:17:44;;;;;;;25.40;12.65;;;;;;;;;;5152823;27;20074;-64
2021/12/09 14:20:17;;;;;;;22.83;12.18;;;;;;;;;;5117267;27;20142;-65
2021/12/09 14:22:44;;;;;;;24.70;12.63;;;;;;;;;;5154863;27;20023;-66
2021/12/09 14:25:11;;;;;;;24.40;12.20;;;;;;;;;;5159911;27;20083;-65
2021/12/09 14:27:38;;;;;;;29.55;13.00;;;;;;;;;;5159953;27;20055;-66
2021/12/09 14:30:05;;;;;;;40.10;13.38;;;;;;;;;;5124988;27;20038;-66
2021/12/09 14:32:31;;;;;;;27.50;12.18;;;;;;;;;;5124854;27;20057;-67
2021/12/09 14:35:07;;;;;;;52.55;15.52;;;;;;;;;;5126478;28;20039;-67
2021/12/09 14:37:36;;;;;;;31.63;13.15;;;;;;;;;;5160040;27;20023;-67
2021/12/09 14:40:12;;;;;;;42.97;15.07;;;;;;;;;;5159632;27;20035;-66
2021/12/09 14:42:50;;;;;;;27.10;12.98;;;;;;;;;;5159719;27;20106;-65
2021/12/09 14:45:16;;;;;;;22.95;12.20;;;;;;;;;;5141949;27;20054;-67
2021/12/09 14:47:53;;;;;;;26.65;11.77;;;;;;;;;;5159763;28;20023;-65
2021/12/09 14:50:19;;;;;;;30.33;13.27;;;;;;;;;;5141580;27;20039;-68
2021/12/09 14:52:54;;;;;;;23.50;12.82;;;;;;;;;;5125166;28;20061;-68
2021/12/09 14:55:29;;;;;;;23.35;11.23;;;;;;;;;;5159032;27;20035;-66
2021/12/09 14:58:13;;;;;;;24.52;11.27;;;;;;;;;;5159380;27;20054;-63
2021/12/09 15:00:44;;;;;;;29.55;13.57;;;;;;;;;;5156932;28;20040;-65
2021/12/09 15:03:13;;;;;;;27.63;12.77;;;;;;;;;;5155459;27;20027;-66
2021/12/09 15:06:00;;;;;;;22.35;11.65;;;;;;;;;;5155761;28;20063;-64
2021/12/09 15:08:27;;;;;;;23.77;11.82;;;;;;;;;;5134282;28;20039;-65
2021/12/09 15:10:55;;;;;;;23.42;12.80;;;;;;;;;;5150038;28;20043;-65
2021/12/09 15:13:23;;;;;;;26.85;12.23;;;;;;;;;;5150187;28;20043;-63
2021/12/09 15:16:00;;;;;;;23.88;12.40;;;;;;;;;;5147479;27;20035;-64
2021/12/09 15:18:27;;;;;;;28.77;13.02;;;;;;;;;;5161790;27;20037;-66
2021/12/09 15:20:57;;;;;;;28.80;13.30;;;;;;;;;;5162539;27;20076;-65